sensor_id;sensor_type;location;lat;lon;timestamp;P1;durP1;ratioP1;P2;durP2;ratioP2
75758;SDS011;64371;47.566;19.086;2023-05-10T00:01:32;3.55;;;2.10;;
75758;SDS011;64371;47.566;19.086;2023-05-10T00:04:34;2.53;;;1.70;;
75758;SDS011;64371;47.566;19.086;2023-05-10T00:07:40;3.40;;;2.00;;
75758;SDS011;64371;47.566;19.086;2023-05-10T00:10:42;3.08;;;1.85;;
75758;SDS011;64371;47.566;19.086;2023-05-10T00:13:44;3.10;;;2.25;;
75758;SDS011;64371;47.566;19.086;2023-05-10T00:16:47;3.35;;;1.55;;
75758;SDS011;64371;47.566;19.086;2023-05-10T00:19:50;2.42;;;1.35;;
75758;SDS011;64371;47.566;19.086;2023-05-10T00:22:53;2.43;;;1.60;;
75758;SDS011;64371;47.566;19.086;2023-05-10T00:25:55;2.72;;;1.85;;
75758;SDS011;64371;47.566;19.086;2023-05-10T00:28:58;3.10;;;1.80;;
75758;SDS011;64371;47.566;19.086;2023-05-10T00:32:00;4.78;;;2.03;;
75758;SDS011;64371;47.566;19.086;2023-05-10T00:35:03;3.58;;;1.85;;
75758;SDS011;64371;47.566;19.086;2023-05-10T00:38:06;3.60;;;2.40;;
75758;SDS011;64371;47.566;19.086;2023-05-10T00:41:08;5.32;;;2.05;;
75758;SDS011;64371;47.566;19.086;2023-05-10T00:44:13;5.90;;;2.72;;
75758;SDS011;64371;47.566;19.086;2023-05-10T00:47:15;3.88;;;2.17;;
75758;SDS011;64371;47.566;19.086;2023-05-10T00:50:18;3.38;;;2.22;;
75758;SDS011;64371;47.566;19.086;2023-05-10T00:53:21;3.50;;;2.10;;
75758;SDS011;64371;47.566;19.086;2023-05-10T00:56:24;3.35;;;2.40;;
75758;SDS011;64371;47.566;19.086;2023-05-10T00:59:27;3.17;;;2.25;;
75758;SDS011;64371;47.566;19.086;2023-05-10T01:02:30;5.03;;;2.75;;
75758;SDS011;64371;47.566;19.086;2023-05-10T01:05:33;3.47;;;2.38;;
75758;SDS011;64371;47.566;19.086;2023-05-10T01:08:35;3.50;;;2.37;;
75758;SDS011;64371;47.566;19.086;2023-05-10T01:11:38;5.93;;;2.55;;
75758;SDS011;64371;47.566;19.086;2023-05-10T01:14:42;3.47;;;2.47;;
75758;SDS011;64371;47.566;19.086;2023-05-10T01:17:45;4.07;;;2.80;;
75758;SDS011;64371;47.566;19.086;2023-05-10T01:20:52;4.03;;;2.60;;
75758;SDS011;64371;47.566;19.086;2023-05-10T01:31:06;4.75;;;2.88;;
75758;SDS011;64371;47.566;19.086;2023-05-10T01:34:21;4.43;;;2.97;;
75758;SDS011;64371;47.566;19.086;2023-05-10T01:37:29;5.80;;;3.00;;
75758;SDS011;64371;47.566;19.086;2023-05-10T01:41:14;3.97;;;2.70;;
75758;SDS011;64371;47.566;19.086;2023-05-10T01:50:41;9.50;;;3.05;;
75758;SDS011;64371;47.566;19.086;2023-05-10T01:53:45;5.32;;;2.88;;
75758;SDS011;64371;47.566;19.086;2023-05-10T01:57:01;4.87;;;3.13;;
75758;SDS011;64371;47.566;19.086;2023-05-10T02:00:07;4.90;;;2.70;;
75758;SDS011;64371;47.566;19.086;2023-05-10T02:03:17;5.63;;;2.88;;
75758;SDS011;64371;47.566;19.086;2023-05-10T02:06:22;5.60;;;2.50;;
75758;SDS011;64371;47.566;19.086;2023-05-10T02:09:27;4.57;;;3.05;;
75758;SDS011;64371;47.566;19.086;2023-05-10T02:12:35;3.87;;;2.70;;
75758;SDS011;64371;47.566;19.086;2023-05-10T02:15:40;3.90;;;2.22;;
75758;SDS011;64371;47.566;19.086;2023-05-10T02:18:43;4.22;;;2.55;;
75758;SDS011;64371;47.566;19.086;2023-05-10T02:21:46;3.60;;;2.30;;
75758;SDS011;64371;47.566;19.086;2023-05-10T02:24:49;4.72;;;3.00;;
75758;SDS011;64371;47.566;19.086;2023-05-10T02:27:54;6.60;;;3.53;;
75758;SDS011;64371;47.566;19.086;2023-05-10T02:30:58;5.20;;;3.42;;
75758;SDS011;64371;47.566;19.086;2023-05-10T02:34:02;5.13;;;3.63;;
75758;SDS011;64371;47.566;19.086;2023-05-10T02:37:06;5.35;;;3.20;;
75758;SDS011;64371;47.566;19.086;2023-05-10T02:40:09;5.90;;;3.80;;
75758;SDS011;64371;47.566;19.086;2023-05-10T02:43:16;5.47;;;2.87;;
75758;SDS011;64371;47.566;19.086;2023-05-10T02:46:20;5.05;;;3.25;;
75758;SDS011;64371;47.566;19.086;2023-05-10T02:49:22;5.22;;;3.28;;
75758;SDS011;64371;47.566;19.086;2023-05-10T02:52:29;4.65;;;2.83;;
75758;SDS011;64371;47.566;19.086;2023-05-10T02:55:38;4.07;;;2.90;;
75758;SDS011;64371;47.566;19.086;2023-05-10T02:58:43;4.67;;;2.80;;
75758;SDS011;64371;47.566;19.086;2023-05-10T03:01:46;4.47;;;2.70;;
75758;SDS011;64371;47.566;19.086;2023-05-10T03:04:48;9.57;;;2.88;;
75758;SDS011;64371;47.566;19.086;2023-05-10T03:07:51;3.25;;;2.20;;
75758;SDS011;64371;47.566;19.086;2023-05-10T03:11:16;5.45;;;3.10;;
75758;SDS011;64371;47.566;19.086;2023-05-10T03:20:49;3.92;;;2.83;;
75758;SDS011;64371;47.566;19.086;2023-05-10T03:23:58;7.30;;;3.65;;
75758;SDS011;64371;47.566;19.086;2023-05-10T03:27:07;5.55;;;3.17;;
75758;SDS011;64371;47.566;19.086;2023-05-10T03:30:11;5.10;;;2.13;;
75758;SDS011;64371;47.566;19.086;2023-05-10T03:33:14;3.67;;;1.75;;
75758;SDS011;64371;47.566;19.086;2023-05-10T03:36:19;7.85;;;3.40;;
75758;SDS011;64371;47.566;19.086;2023-05-10T03:39:22;6.15;;;2.80;;
75758;SDS011;64371;47.566;19.086;2023-05-10T03:42:28;9.07;;;3.00;;
75758;SDS011;64371;47.566;19.086;2023-05-10T03:45:31;6.70;;;3.00;;
75758;SDS011;64371;47.566;19.086;2023-05-10T03:48:34;6.18;;;2.50;;
75758;SDS011;64371;47.566;19.086;2023-05-10T03:51:36;3.95;;;2.20;;
75758;SDS011;64371;47.566;19.086;2023-05-10T03:54:39;4.70;;;3.00;;
75758;SDS011;64371;47.566;19.086;2023-05-10T03:57:41;7.30;;;3.10;;
75758;SDS011;64371;47.566;19.086;2023-05-10T04:00:44;4.43;;;3.10;;
75758;SDS011;64371;47.566;19.086;2023-05-10T04:03:48;5.85;;;3.80;;
75758;SDS011;64371;47.566;19.086;2023-05-10T04:06:51;5.57;;;3.55;;
75758;SDS011;64371;47.566;19.086;2023-05-10T04:09:53;4.05;;;2.75;;
75758;SDS011;64371;47.566;19.086;2023-05-10T04:12:57;6.78;;;3.47;;
75758;SDS011;64371;47.566;19.086;2023-05-10T04:15:59;5.50;;;3.50;;
75758;SDS011;64371;47.566;19.086;2023-05-10T04:19:02;6.63;;;3.63;;
75758;SDS011;64371;47.566;19.086;2023-05-10T04:22:04;5.65;;;4.57;;
75758;SDS011;64371;47.566;19.086;2023-05-10T04:25:07;7.32;;;3.53;;
75758;SDS011;64371;47.566;19.086;2023-05-10T04:28:10;5.28;;;3.90;;
75758;SDS011;64371;47.566;19.086;2023-05-10T04:31:12;5.07;;;3.33;;
75758;SDS011;64371;47.566;19.086;2023-05-10T04:34:14;4.03;;;2.40;;
75758;SDS011;64371;47.566;19.086;2023-05-10T04:37:17;5.57;;;3.33;;
75758;SDS011;64371;47.566;19.086;2023-05-10T04:40:20;5.60;;;3.42;;
75758;SDS011;64371;47.566;19.086;2023-05-10T04:43:22;7.25;;;3.70;;
75758;SDS011;64371;47.566;19.086;2023-05-10T04:46:24;5.77;;;4.20;;
75758;SDS011;64371;47.566;19.086;2023-05-10T04:49:27;3.70;;;2.13;;
75758;SDS011;64371;47.566;19.086;2023-05-10T04:52:30;5.93;;;3.80;;
75758;SDS011;64371;47.566;19.086;2023-05-10T04:55:32;5.97;;;3.88;;
75758;SDS011;64371;47.566;19.086;2023-05-10T04:58:34;8.65;;;4.53;;
75758;SDS011;64371;47.566;19.086;2023-05-10T05:01:37;9.17;;;4.00;;
75758;SDS011;64371;47.566;19.086;2023-05-10T05:04:39;5.82;;;4.10;;
75758;SDS011;64371;47.566;19.086;2023-05-10T05:07:41;7.38;;;4.05;;
75758;SDS011;64371;47.566;19.086;2023-05-10T05:10:44;8.25;;;4.43;;
75758;SDS011;64371;47.566;19.086;2023-05-10T05:13:46;5.65;;;3.90;;
75758;SDS011;64371;47.566;19.086;2023-05-10T05:16:48;5.00;;;3.23;;
75758;SDS011;64371;47.566;19.086;2023-05-10T05:19:51;7.32;;;4.70;;
75758;SDS011;64371;47.566;19.086;2023-05-10T05:22:53;6.95;;;4.28;;
75758;SDS011;64371;47.566;19.086;2023-05-10T05:25:55;8.82;;;6.30;;
75758;SDS011;64371;47.566;19.086;2023-05-10T05:28:58;7.22;;;4.13;;
75758;SDS011;64371;47.566;19.086;2023-05-10T05:32:00;5.97;;;3.80;;
75758;SDS011;64371;47.566;19.086;2023-05-10T05:35:03;6.57;;;4.57;;
75758;SDS011;64371;47.566;19.086;2023-05-10T05:38:06;7.45;;;4.03;;
75758;SDS011;64371;47.566;19.086;2023-05-10T05:41:08;9.30;;;4.63;;
75758;SDS011;64371;47.566;19.086;2023-05-10T05:44:11;5.57;;;3.00;;
75758;SDS011;64371;47.566;19.086;2023-05-10T05:47:13;5.83;;;4.60;;
75758;SDS011;64371;47.566;19.086;2023-05-10T05:50:15;6.63;;;4.18;;
75758;SDS011;64371;47.566;19.086;2023-05-10T05:53:18;7.25;;;3.80;;
75758;SDS011;64371;47.566;19.086;2023-05-10T05:56:20;7.53;;;4.25;;
75758;SDS011;64371;47.566;19.086;2023-05-10T05:59:26;5.13;;;3.03;;
75758;SDS011;64371;47.566;19.086;2023-05-10T06:02:29;6.40;;;3.47;;
75758;SDS011;64371;47.566;19.086;2023-05-10T06:05:31;4.93;;;2.88;;
75758;SDS011;64371;47.566;19.086;2023-05-10T06:08:34;6.97;;;4.18;;
75758;SDS011;64371;47.566;19.086;2023-05-10T06:11:36;4.65;;;3.35;;
75758;SDS011;64371;47.566;19.086;2023-05-10T06:14:39;7.05;;;4.22;;
75758;SDS011;64371;47.566;19.086;2023-05-10T06:17:41;6.30;;;4.17;;
75758;SDS011;64371;47.566;19.086;2023-05-10T06:20:45;4.43;;;3.35;;
75758;SDS011;64371;47.566;19.086;2023-05-10T06:23:47;5.43;;;4.28;;
75758;SDS011;64371;47.566;19.086;2023-05-10T06:26:50;4.10;;;3.33;;
75758;SDS011;64371;47.566;19.086;2023-05-10T06:29:53;3.72;;;2.63;;
75758;SDS011;64371;47.566;19.086;2023-05-10T06:33:10;4.60;;;3.50;;
75758;SDS011;64371;47.566;19.086;2023-05-10T06:36:12;5.05;;;3.80;;
75758;SDS011;64371;47.566;19.086;2023-05-10T06:39:15;4.97;;;3.33;;
75758;SDS011;64371;47.566;19.086;2023-05-10T06:42:17;5.32;;;3.20;;
75758;SDS011;64371;47.566;19.086;2023-05-10T06:45:21;4.32;;;2.78;;
75758;SDS011;64371;47.566;19.086;2023-05-10T06:48:23;4.50;;;3.13;;
75758;SDS011;64371;47.566;19.086;2023-05-10T06:51:26;6.13;;;4.10;;
75758;SDS011;64371;47.566;19.086;2023-05-10T06:54:28;7.15;;;4.25;;
75758;SDS011;64371;47.566;19.086;2023-05-10T06:57:31;6.35;;;4.40;;
75758;SDS011;64371;47.566;19.086;2023-05-10T07:00:34;5.03;;;3.08;;
75758;SDS011;64371;47.566;19.086;2023-05-10T07:03:36;5.43;;;2.40;;
75758;SDS011;64371;47.566;19.086;2023-05-10T07:06:38;7.18;;;4.55;;
75758;SDS011;64371;47.566;19.086;2023-05-10T07:09:41;4.93;;;2.28;;
75758;SDS011;64371;47.566;19.086;2023-05-10T07:12:46;8.25;;;3.55;;
75758;SDS011;64371;47.566;19.086;2023-05-10T07:15:51;3.38;;;2.75;;
75758;SDS011;64371;47.566;19.086;2023-05-10T07:18:54;5.83;;;3.07;;
75758;SDS011;64371;47.566;19.086;2023-05-10T07:21:56;5.80;;;3.47;;
75758;SDS011;64371;47.566;19.086;2023-05-10T07:24:58;4.65;;;3.55;;
75758;SDS011;64371;47.566;19.086;2023-05-10T07:28:01;5.57;;;3.80;;
75758;SDS011;64371;47.566;19.086;2023-05-10T07:31:04;6.07;;;2.60;;
75758;SDS011;64371;47.566;19.086;2023-05-10T07:34:06;6.37;;;4.00;;
75758;SDS011;64371;47.566;19.086;2023-05-10T07:37:08;5.55;;;3.47;;
75758;SDS011;64371;47.566;19.086;2023-05-10T07:40:11;3.13;;;2.80;;
75758;SDS011;64371;47.566;19.086;2023-05-10T07:43:13;3.78;;;3.25;;
75758;SDS011;64371;47.566;19.086;2023-05-10T07:46:18;3.80;;;3.30;;
75758;SDS011;64371;47.566;19.086;2023-05-10T07:49:21;7.03;;;3.77;;
75758;SDS011;64371;47.566;19.086;2023-05-10T07:52:26;4.50;;;3.35;;
75758;SDS011;64371;47.566;19.086;2023-05-10T07:55:28;5.82;;;4.13;;
75758;SDS011;64371;47.566;19.086;2023-05-10T07:58:31;6.85;;;3.75;;
75758;SDS011;64371;47.566;19.086;2023-05-10T08:01:33;3.67;;;1.88;;
75758;SDS011;64371;47.566;19.086;2023-05-10T08:04:36;4.90;;;3.20;;
75758;SDS011;64371;47.566;19.086;2023-05-10T08:07:39;4.70;;;3.25;;
75758;SDS011;64371;47.566;19.086;2023-05-10T08:10:42;5.22;;;3.53;;
75758;SDS011;64371;47.566;19.086;2023-05-10T08:13:44;6.70;;;3.88;;
75758;SDS011;64371;47.566;19.086;2023-05-10T08:16:47;6.35;;;4.45;;
75758;SDS011;64371;47.566;19.086;2023-05-10T08:19:49;5.80;;;3.07;;
75758;SDS011;64371;47.566;19.086;2023-05-10T08:22:55;6.00;;;3.50;;
75758;SDS011;64371;47.566;19.086;2023-05-10T08:26:00;4.28;;;3.10;;
75758;SDS011;64371;47.566;19.086;2023-05-10T08:29:02;9.52;;;4.32;;
75758;SDS011;64371;47.566;19.086;2023-05-10T08:32:05;4.20;;;3.33;;
75758;SDS011;64371;47.566;19.086;2023-05-10T08:35:07;5.73;;;2.83;;
75758;SDS011;64371;47.566;19.086;2023-05-10T08:38:09;5.97;;;4.25;;
75758;SDS011;64371;47.566;19.086;2023-05-10T08:41:12;4.78;;;3.58;;
75758;SDS011;64371;47.566;19.086;2023-05-10T08:44:15;4.93;;;3.35;;
75758;SDS011;64371;47.566;19.086;2023-05-10T08:47:21;5.22;;;3.78;;
75758;SDS011;64371;47.566;19.086;2023-05-10T08:50:24;8.33;;;3.77;;
75758;SDS011;64371;47.566;19.086;2023-05-10T08:53:31;5.35;;;3.47;;
75758;SDS011;64371;47.566;19.086;2023-05-10T08:56:37;5.03;;;3.28;;
75758;SDS011;64371;47.566;19.086;2023-05-10T08:59:39;4.95;;;3.42;;
75758;SDS011;64371;47.566;19.086;2023-05-10T09:02:42;4.38;;;2.53;;
75758;SDS011;64371;47.566;19.086;2023-05-10T09:05:46;3.30;;;2.47;;
75758;SDS011;64371;47.566;19.086;2023-05-10T09:08:48;3.85;;;3.15;;
75758;SDS011;64371;47.566;19.086;2023-05-10T09:11:52;4.00;;;3.38;;
75758;SDS011;64371;47.566;19.086;2023-05-10T09:14:55;5.55;;;3.40;;
75758;SDS011;64371;47.566;19.086;2023-05-10T09:18:04;4.20;;;3.30;;
75758;SDS011;64371;47.566;19.086;2023-05-10T09:21:07;4.43;;;3.93;;
75758;SDS011;64371;47.566;19.086;2023-05-10T09:24:10;2.97;;;2.63;;
75758;SDS011;64371;47.566;19.086;2023-05-10T09:27:13;5.68;;;4.07;;
75758;SDS011;64371;47.566;19.086;2023-05-10T09:30:17;5.20;;;3.38;;
75758;SDS011;64371;47.566;19.086;2023-05-10T09:33:30;6.10;;;3.20;;
75758;SDS011;64371;47.566;19.086;2023-05-10T09:36:53;4.37;;;2.90;;
75758;SDS011;64371;47.566;19.086;2023-05-10T09:39:56;5.13;;;2.72;;
75758;SDS011;64371;47.566;19.086;2023-05-10T09:43:08;4.00;;;3.22;;
75758;SDS011;64371;47.566;19.086;2023-05-10T09:46:13;4.82;;;3.13;;
75758;SDS011;64371;47.566;19.086;2023-05-10T09:49:15;5.55;;;3.88;;
75758;SDS011;64371;47.566;19.086;2023-05-10T09:52:18;4.10;;;2.70;;
75758;SDS011;64371;47.566;19.086;2023-05-10T09:55:22;5.05;;;2.80;;
75758;SDS011;64371;47.566;19.086;2023-05-10T09:58:25;6.38;;;2.85;;
75758;SDS011;64371;47.566;19.086;2023-05-10T10:01:28;3.25;;;2.60;;
75758;SDS011;64371;47.566;19.086;2023-05-10T10:04:31;2.88;;;2.08;;
75758;SDS011;64371;47.566;19.086;2023-05-10T10:07:35;2.70;;;2.30;;
75758;SDS011;64371;47.566;19.086;2023-05-10T10:10:37;3.95;;;2.50;;
75758;SDS011;64371;47.566;19.086;2023-05-10T10:13:43;3.47;;;2.65;;
75758;SDS011;64371;47.566;19.086;2023-05-10T10:16:46;4.07;;;2.70;;
75758;SDS011;64371;47.566;19.086;2023-05-10T10:20:07;3.10;;;2.80;;
75758;SDS011;64371;47.566;19.086;2023-05-10T10:23:13;2.80;;;2.07;;
75758;SDS011;64371;47.566;19.086;2023-05-10T10:26:18;2.60;;;2.05;;
75758;SDS011;64371;47.566;19.086;2023-05-10T10:29:25;2.90;;;2.22;;
75758;SDS011;64371;47.566;19.086;2023-05-10T10:36:27;2.55;;;2.20;;
75758;SDS011;64371;47.566;19.086;2023-05-10T10:39:30;2.40;;;1.87;;
75758;SDS011;64371;47.566;19.086;2023-05-10T10:42:45;3.05;;;1.95;;
75758;SDS011;64371;47.566;19.086;2023-05-10T10:46:15;2.33;;;1.92;;
75758;SDS011;64371;47.566;19.086;2023-05-10T10:49:20;3.08;;;2.00;;
75758;SDS011;64371;47.566;19.086;2023-05-10T10:52:27;3.92;;;2.53;;
75758;SDS011;64371;47.566;19.086;2023-05-10T10:55:34;3.70;;;1.90;;
75758;SDS011;64371;47.566;19.086;2023-05-10T10:58:50;2.83;;;2.00;;
75758;SDS011;64371;47.566;19.086;2023-05-10T11:01:54;1.85;;;1.63;;
75758;SDS011;64371;47.566;19.086;2023-05-10T11:04:56;2.38;;;1.80;;
75758;SDS011;64371;47.566;19.086;2023-05-10T11:07:59;3.33;;;1.50;;
75758;SDS011;64371;47.566;19.086;2023-05-10T11:11:03;2.67;;;1.70;;
75758;SDS011;64371;47.566;19.086;2023-05-10T11:14:09;3.22;;;2.10;;
75758;SDS011;64371;47.566;19.086;2023-05-10T11:17:24;2.58;;;1.48;;
75758;SDS011;64371;47.566;19.086;2023-05-10T11:20:29;4.05;;;2.40;;
75758;SDS011;64371;47.566;19.086;2023-05-10T11:23:47;2.95;;;1.40;;
75758;SDS011;64371;47.566;19.086;2023-05-10T11:26:59;2.80;;;1.60;;
75758;SDS011;64371;47.566;19.086;2023-05-10T11:30:04;2.97;;;2.20;;
75758;SDS011;64371;47.566;19.086;2023-05-10T11:33:08;3.65;;;2.00;;
75758;SDS011;64371;47.566;19.086;2023-05-10T11:36:15;2.30;;;1.88;;
75758;SDS011;64371;47.566;19.086;2023-05-10T11:39:28;3.03;;;1.60;;
75758;SDS011;64371;47.566;19.086;2023-05-10T11:42:32;4.10;;;2.60;;
75758;SDS011;64371;47.566;19.086;2023-05-10T11:45:35;4.68;;;2.08;;
75758;SDS011;64371;47.566;19.086;2023-05-10T11:48:41;5.55;;;2.83;;
75758;SDS011;64371;47.566;19.086;2023-05-10T11:51:44;2.22;;;1.50;;
75758;SDS011;64371;47.566;19.086;2023-05-10T11:54:51;2.20;;;1.70;;
75758;SDS011;64371;47.566;19.086;2023-05-10T11:57:55;2.60;;;2.10;;
75758;SDS011;64371;47.566;19.086;2023-05-10T12:01:03;3.75;;;1.67;;
75758;SDS011;64371;47.566;19.086;2023-05-10T12:04:07;4.00;;;1.50;;
75758;SDS011;64371;47.566;19.086;2023-05-10T12:07:10;3.65;;;1.70;;
75758;SDS011;64371;47.566;19.086;2023-05-10T12:10:12;3.75;;;1.80;;
75758;SDS011;64371;47.566;19.086;2023-05-10T12:13:21;2.60;;;2.00;;
75758;SDS011;64371;47.566;19.086;2023-05-10T12:16:28;2.80;;;1.52;;
75758;SDS011;64371;47.566;19.086;2023-05-10T12:19:38;3.28;;;2.00;;
75758;SDS011;64371;47.566;19.086;2023-05-10T12:22:43;2.42;;;1.60;;
75758;SDS011;64371;47.566;19.086;2023-05-10T12:25:51;2.22;;;1.75;;
75758;SDS011;64371;47.566;19.086;2023-05-10T12:29:11;1.83;;;1.50;;
75758;SDS011;64371;47.566;19.086;2023-05-10T12:32:18;2.13;;;1.70;;
75758;SDS011;64371;47.566;19.086;2023-05-10T12:35:21;3.63;;;2.10;;
75758;SDS011;64371;47.566;19.086;2023-05-10T12:38:29;3.88;;;2.38;;
75758;SDS011;64371;47.566;19.086;2023-05-10T12:41:35;2.25;;;1.30;;
75758;SDS011;64371;47.566;19.086;2023-05-10T12:44:38;2.07;;;1.13;;
75758;SDS011;64371;47.566;19.086;2023-05-10T12:47:48;2.08;;;1.48;;
75758;SDS011;64371;47.566;19.086;2023-05-10T12:50:50;2.33;;;1.23;;
75758;SDS011;64371;47.566;19.086;2023-05-10T12:54:00;2.40;;;2.05;;
75758;SDS011;64371;47.566;19.086;2023-05-10T12:57:38;1.95;;;1.60;;
75758;SDS011;64371;47.566;19.086;2023-05-10T13:00:43;2.23;;;1.57;;
75758;SDS011;64371;47.566;19.086;2023-05-10T13:03:45;1.73;;;1.38;;
75758;SDS011;64371;47.566;19.086;2023-05-10T13:06:48;3.85;;;1.77;;
75758;SDS011;64371;47.566;19.086;2023-05-10T13:09:50;2.95;;;1.70;;
75758;SDS011;64371;47.566;19.086;2023-05-10T13:12:53;2.25;;;2.05;;
75758;SDS011;64371;47.566;19.086;2023-05-10T13:15:55;4.43;;;1.47;;
75758;SDS011;64371;47.566;19.086;2023-05-10T13:18:57;3.67;;;2.47;;
75758;SDS011;64371;47.566;19.086;2023-05-10T13:22:00;1.77;;;1.20;;
75758;SDS011;64371;47.566;19.086;2023-05-10T13:25:03;2.92;;;1.63;;
75758;SDS011;64371;47.566;19.086;2023-05-10T13:28:05;3.70;;;1.52;;
75758;SDS011;64371;47.566;19.086;2023-05-10T13:31:08;3.70;;;1.93;;
75758;SDS011;64371;47.566;19.086;2023-05-10T13:34:10;2.15;;;1.10;;
75758;SDS011;64371;47.566;19.086;2023-05-10T13:37:13;3.08;;;1.65;;
75758;SDS011;64371;47.566;19.086;2023-05-10T13:40:16;2.22;;;1.40;;
75758;SDS011;64371;47.566;19.086;2023-05-10T13:43:19;3.95;;;1.25;;
75758;SDS011;64371;47.566;19.086;2023-05-10T13:46:34;2.10;;;1.17;;
75758;SDS011;64371;47.566;19.086;2023-05-10T13:49:40;2.45;;;1.75;;
75758;SDS011;64371;47.566;19.086;2023-05-10T13:52:43;2.58;;;1.13;;
75758;SDS011;64371;47.566;19.086;2023-05-10T13:55:46;2.10;;;1.30;;
75758;SDS011;64371;47.566;19.086;2023-05-10T13:58:49;2.28;;;1.20;;
75758;SDS011;64371;47.566;19.086;2023-05-10T14:01:51;2.87;;;1.77;;
75758;SDS011;64371;47.566;19.086;2023-05-10T14:04:54;2.28;;;0.95;;
75758;SDS011;64371;47.566;19.086;2023-05-10T14:07:56;2.45;;;1.30;;
75758;SDS011;64371;47.566;19.086;2023-05-10T14:10:59;2.92;;;1.30;;
75758;SDS011;64371;47.566;19.086;2023-05-10T14:14:01;1.60;;;1.30;;
75758;SDS011;64371;47.566;19.086;2023-05-10T14:17:04;2.83;;;1.67;;
75758;SDS011;64371;47.566;19.086;2023-05-10T14:20:07;2.08;;;1.50;;
75758;SDS011;64371;47.566;19.086;2023-05-10T14:23:10;5.13;;;1.20;;
75758;SDS011;64371;47.566;19.086;2023-05-10T14:26:13;1.40;;;0.95;;
75758;SDS011;64371;47.566;19.086;2023-05-10T14:29:16;2.45;;;1.35;;
75758;SDS011;64371;47.566;19.086;2023-05-10T14:32:19;2.03;;;1.17;;
75758;SDS011;64371;47.566;19.086;2023-05-10T14:35:21;2.38;;;1.48;;
75758;SDS011;64371;47.566;19.086;2023-05-10T14:38:24;1.63;;;1.38;;
75758;SDS011;64371;47.566;19.086;2023-05-10T14:41:26;6.60;;;1.95;;
75758;SDS011;64371;47.566;19.086;2023-05-10T14:44:29;2.08;;;1.13;;
75758;SDS011;64371;47.566;19.086;2023-05-10T14:47:32;1.70;;;1.43;;
75758;SDS011;64371;47.566;19.086;2023-05-10T14:50:35;6.60;;;1.10;;
75758;SDS011;64371;47.566;19.086;2023-05-10T14:53:38;4.63;;;1.40;;
75758;SDS011;64371;47.566;19.086;2023-05-10T14:56:40;1.70;;;1.10;;
75758;SDS011;64371;47.566;19.086;2023-05-10T14:59:43;2.10;;;1.58;;
75758;SDS011;64371;47.566;19.086;2023-05-10T15:02:46;1.40;;;0.90;;
75758;SDS011;64371;47.566;19.086;2023-05-10T15:05:51;1.10;;;1.00;;
75758;SDS011;64371;47.566;19.086;2023-05-10T15:08:55;1.42;;;0.88;;
75758;SDS011;64371;47.566;19.086;2023-05-10T15:11:57;2.10;;;1.02;;
75758;SDS011;64371;47.566;19.086;2023-05-10T15:14:59;5.45;;;1.00;;
75758;SDS011;64371;47.566;19.086;2023-05-10T15:18:02;0.97;;;0.87;;
75758;SDS011;64371;47.566;19.086;2023-05-10T15:21:04;1.27;;;0.80;;
75758;SDS011;64371;47.566;19.086;2023-05-10T15:24:07;2.20;;;0.95;;
75758;SDS011;64371;47.566;19.086;2023-05-10T15:27:09;3.08;;;1.10;;
75758;SDS011;64371;47.566;19.086;2023-05-10T15:30:12;1.60;;;1.00;;
75758;SDS011;64371;47.566;19.086;2023-05-10T15:33:14;2.33;;;0.97;;
75758;SDS011;64371;47.566;19.086;2023-05-10T15:36:16;0.95;;;0.85;;
75758;SDS011;64371;47.566;19.086;2023-05-10T15:39:19;3.13;;;1.27;;
75758;SDS011;64371;47.566;19.086;2023-05-10T15:42:22;2.25;;;1.00;;
75758;SDS011;64371;47.566;19.086;2023-05-10T15:45:24;2.42;;;1.10;;
75758;SDS011;64371;47.566;19.086;2023-05-10T15:48:26;2.03;;;1.17;;
75758;SDS011;64371;47.566;19.086;2023-05-10T15:51:29;4.18;;;1.17;;
75758;SDS011;64371;47.566;19.086;2023-05-10T15:54:31;3.60;;;1.25;;
75758;SDS011;64371;47.566;19.086;2023-05-10T15:57:33;3.75;;;1.40;;
75758;SDS011;64371;47.566;19.086;2023-05-10T16:00:37;1.27;;;0.98;;
75758;SDS011;64371;47.566;19.086;2023-05-10T16:03:39;2.37;;;1.50;;
75758;SDS011;64371;47.566;19.086;2023-05-10T16:06:42;3.28;;;1.30;;
75758;SDS011;64371;47.566;19.086;2023-05-10T16:09:45;2.55;;;1.40;;
75758;SDS011;64371;47.566;19.086;2023-05-10T16:12:47;1.67;;;1.00;;
75758;SDS011;64371;47.566;19.086;2023-05-10T16:15:49;1.90;;;1.48;;
75758;SDS011;64371;47.566;19.086;2023-05-10T16:18:52;2.33;;;1.33;;
75758;SDS011;64371;47.566;19.086;2023-05-10T16:21:54;1.13;;;1.00;;
75758;SDS011;64371;47.566;19.086;2023-05-10T16:24:57;2.00;;;1.00;;
75758;SDS011;64371;47.566;19.086;2023-05-10T16:28:00;3.15;;;1.38;;
75758;SDS011;64371;47.566;19.086;2023-05-10T16:31:02;1.73;;;1.10;;
75758;SDS011;64371;47.566;19.086;2023-05-10T16:34:04;2.20;;;1.00;;
75758;SDS011;64371;47.566;19.086;2023-05-10T16:37:07;2.65;;;1.30;;
75758;SDS011;64371;47.566;19.086;2023-05-10T16:40:09;3.00;;;1.50;;
75758;SDS011;64371;47.566;19.086;2023-05-10T16:43:12;1.52;;;1.10;;
75758;SDS011;64371;47.566;19.086;2023-05-10T16:46:14;5.43;;;0.98;;
75758;SDS011;64371;47.566;19.086;2023-05-10T16:49:17;1.50;;;1.10;;
75758;SDS011;64371;47.566;19.086;2023-05-10T16:52:19;3.58;;;1.65;;
75758;SDS011;64371;47.566;19.086;2023-05-10T16:55:21;2.30;;;1.52;;
75758;SDS011;64371;47.566;19.086;2023-05-10T16:58:27;3.45;;;1.60;;
75758;SDS011;64371;47.566;19.086;2023-05-10T17:01:29;1.50;;;1.00;;
75758;SDS011;64371;47.566;19.086;2023-05-10T17:04:31;3.73;;;1.50;;
75758;SDS011;64371;47.566;19.086;2023-05-10T17:07:33;4.03;;;1.40;;
75758;SDS011;64371;47.566;19.086;2023-05-10T17:10:38;2.40;;;1.70;;
75758;SDS011;64371;47.566;19.086;2023-05-10T17:13:41;3.17;;;1.38;;
75758;SDS011;64371;47.566;19.086;2023-05-10T17:16:44;3.17;;;1.73;;
75758;SDS011;64371;47.566;19.086;2023-05-10T17:19:46;3.03;;;2.00;;
75758;SDS011;64371;47.566;19.086;2023-05-10T17:22:48;3.13;;;1.75;;
75758;SDS011;64371;47.566;19.086;2023-05-10T17:25:51;2.70;;;1.73;;
75758;SDS011;64371;47.566;19.086;2023-05-10T17:28:54;8.30;;;1.75;;
75758;SDS011;64371;47.566;19.086;2023-05-10T17:31:57;2.97;;;1.60;;
75758;SDS011;64371;47.566;19.086;2023-05-10T17:35:00;3.10;;;1.80;;
75758;SDS011;64371;47.566;19.086;2023-05-10T17:38:04;2.20;;;1.75;;
75758;SDS011;64371;47.566;19.086;2023-05-10T17:41:07;2.70;;;1.70;;
75758;SDS011;64371;47.566;19.086;2023-05-10T17:44:09;3.05;;;1.80;;
75758;SDS011;64371;47.566;19.086;2023-05-10T17:47:11;4.25;;;2.10;;
75758;SDS011;64371;47.566;19.086;2023-05-10T17:50:13;4.37;;;1.80;;
75758;SDS011;64371;47.566;19.086;2023-05-10T17:53:16;4.13;;;1.80;;
75758;SDS011;64371;47.566;19.086;2023-05-10T17:56:19;4.40;;;1.95;;
75758;SDS011;64371;47.566;19.086;2023-05-10T17:59:23;2.95;;;2.00;;
75758;SDS011;64371;47.566;19.086;2023-05-10T18:02:25;3.85;;;1.67;;
75758;SDS011;64371;47.566;19.086;2023-05-10T18:05:28;2.20;;;1.80;;
75758;SDS011;64371;47.566;19.086;2023-05-10T18:08:30;2.35;;;1.80;;
75758;SDS011;64371;47.566;19.086;2023-05-10T18:11:34;4.65;;;1.90;;
75758;SDS011;64371;47.566;19.086;2023-05-10T18:14:37;3.38;;;1.80;;
75758;SDS011;64371;47.566;19.086;2023-05-10T18:17:42;3.13;;;1.92;;
75758;SDS011;64371;47.566;19.086;2023-05-10T18:20:45;3.47;;;1.70;;
75758;SDS011;64371;47.566;19.086;2023-05-10T18:23:47;5.32;;;2.10;;
75758;SDS011;64371;47.566;19.086;2023-05-10T18:26:50;3.80;;;1.90;;
75758;SDS011;64371;47.566;19.086;2023-05-10T18:29:52;5.68;;;1.80;;
75758;SDS011;64371;47.566;19.086;2023-05-10T18:32:54;4.10;;;1.80;;
75758;SDS011;64371;47.566;19.086;2023-05-10T18:35:58;5.60;;;1.77;;